Time;durP1;ratioP1;P1;durP2;ratioP2;P2;SDS_P1;SDS_P2;PMS_P1;PMS_P2;Temp;Humidity;BMP_temperature;BMP_pressure;BME280_temperature;BME280_humidity;BME280_pressure;Samples;Min_cycle;Max_cycle;Signal;HPM_P1;HPM_P2
2021/04/14 00:01:09;;;;;;;14.30;8.50;;;2.30;1.00;;;;;;5034368;28;20267;-85
2021/04/14 00:03:35;;;;;;;10.07;7.00;;;2.20;1.00;;;;;;5034322;28;20216;-86
2021/04/14 00:06:02;;;;;;;10.27;5.70;;;2.50;1.00;;;;;;5050455;28;20427;-86
2021/04/14 00:08:29;;;;;;;7.00;3.67;;;2.60;1.00;;;;;;5050849;28;20415;-85
2021/04/14 00:10:56;;;;;;;4.23;3.33;;;2.10;1.00;;;;;;5034917;28;20463;-86
2021/04/14 00:13:26;;;;;;;8.67;5.13;;;2.70;1.00;;;;;;5050218;28;20481;-85
2021/04/14 00:15:55;;;;;;;9.67;5.30;;;2.10;1.00;;;;;;5050430;28;20426;-85
2021/04/14 00:18:21;;;;;;;14.13;6.80;;;2.10;1.00;;;;;;5035232;28;20435;-85
2021/04/14 00:20:48;;;;;;;13.80;7.17;;;2.00;1.00;;;;;;5049846;28;20475;-85
2021/04/14 00:23:29;;;;;;;11.93;6.30;;;2.50;1.00;;;;;;5050350;28;20423;-86
2021/04/14 00:25:54;;;;;;;6.67;4.67;;;2.50;1.00;;;;;;5033462;28;20935;-85
2021/04/14 00:28:23;;;;;;;6.60;3.63;;;2.60;1.00;;;;;;5050343;28;20503;-86
2021/04/14 00:30:49;;;;;;;8.10;4.60;;;2.10;1.00;;;;;;5050380;28;20172;-86
2021/04/14 00:33:16;;;;;;;9.33;4.13;;;2.60;1.00;;;;;;5033892;28;20411;-85
2021/04/14 00:35:41;;;;;;;8.90;4.60;;;2.10;1.00;;;;;;5034461;28;20430;-85
2021/04/14 00:38:08;;;;;;;6.53;5.30;;;2.10;1.00;;;;;;5049854;28;20926;-86
2021/04/14 00:40:39;;;;;;;10.70;5.50;;;2.20;1.00;;;;;;5049662;28;20475;-85
2021/04/14 00:43:15;;;;;;;3.93;3.27;;;2.40;1.00;;;;;;5050129;28;20415;-85
2021/04/14 00:45:40;;;;;;;3.97;3.47;;;2.60;1.00;;;;;;5049731;28;20426;-86
2021/04/14 00:48:07;;;;;;;6.20;4.43;;;2.70;1.00;;;;;;5049669;28;20426;-85
2021/04/14 00:50:33;;;;;;;4.63;3.70;;;2.40;1.00;;;;;;5049396;28;20238;-85
2021/04/14 00:52:59;;;;;;;6.10;3.70;;;2.60;1.00;;;;;;5049534;28;20431;-85
2021/04/14 00:55:28;;;;;;;6.33;4.77;;;2.10;1.00;;;;;;5049791;28;20606;-85
2021/04/14 00:57:53;;;;;;;9.00;4.67;;;2.50;1.00;;;;;;5049596;28;20474;-85
2021/04/14 01:00:26;;;;;;;6.33;4.40;;;2.20;1.00;;;;;;5049170;28;21005;-85
2021/04/14 01:02:52;;;;;;;11.57;5.50;;;2.20;1.00;;;;;;5032782;28;20180;-85
2021/04/14 01:05:19;;;;;;;5.50;3.47;;;2.50;1.00;;;;;;5033861;28;20426;-85
2021/04/14 01:07:46;;;;;;;4.80;3.30;;;2.40;1.00;;;;;;5049242;28;20419;-85
2021/04/14 01:10:13;;;;;;;4.13;3.13;;;2.10;1.00;;;;;;5049282;28;20525;-86
2021/04/14 01:12:39;;;;;;;4.43;3.60;;;2.10;1.00;;;;;;5049409;28;20864;-85
2021/04/14 01:15:08;;;;;;;4.50;3.50;;;2.20;1.00;;;;;;5049363;28;20427;-85
2021/04/14 01:17:33;;;;;;;5.07;2.97;;;2.70;1.00;;;;;;5033929;28;20231;-85
2021/04/14 01:19:59;;;;;;;4.67;2.93;;;2.60;1.00;;;;;;5048880;28;20510;-85
2021/04/14 01:22:25;;;;;;;5.10;3.50;;;2.50;1.00;;;;;;5033091;28;20604;-85
2021/04/14 01:24:50;;;;;;;4.60;2.70;;;2.40;1.00;;;;;;5032798;28;20241;-86
2021/04/14 01:27:16;;;;;;;5.70;3.27;;;2.20;1.00;;;;;;5032687;28;20184;-86
2021/04/14 01:29:41;;;;;;;4.47;2.93;;;2.10;1.00;;;;;;5049126;28;20215;-85
2021/04/14 01:32:07;;;;;;;5.77;2.60;;;2.40;1.00;;;;;;5048975;28;20177;-85
2021/04/14 01:34:33;;;;;;;8.23;3.60;;;2.00;1.00;;;;;;5049462;28;20180;-86
2021/04/14 01:36:59;;;;;;;4.63;3.53;;;2.40;1.00;;;;;;5032490;28;20745;-85
2021/04/14 01:39:25;;;;;;;3.60;2.50;;;2.10;1.00;;;;;;5031836;28;20217;-86
2021/04/14 01:41:50;;;;;;;3.63;2.07;;;1.70;7.40;;;;;;5048863;28;21021;-85
2021/04/14 01:44:16;;;;;;;2.80;2.07;;;1.40;15.70;;;;;;5033386;28;20212;-85
2021/04/14 01:46:42;;;;;;;3.40;2.87;;;1.70;28.90;;;;;;5047904;28;20326;-85
2021/04/14 01:49:09;;;;;;;3.93;3.63;;;1.50;44.30;;;;;;5047842;28;20177;-84
2021/04/14 01:51:35;;;;;;;4.53;4.13;;;1.40;59.10;;;;;;5048784;28;20446;-85
2021/04/14 01:54:01;;;;;;;4.73;3.80;;;1.40;70.30;;;;;;5048266;28;20420;-85
2021/04/14 01:56:28;;;;;;;6.40;2.93;;;1.20;77.90;;;;;;5033220;28;20184;-86
2021/04/14 01:58:54;;;;;;;7.97;3.07;;;1.40;84.20;;;;;;5031223;28;20463;-86
2021/04/14 02:01:19;;;;;;;2.83;2.60;;;1.10;88.80;;;;;;5032800;28;20903;-85
2021/04/14 02:03:46;;;;;;;8.63;3.10;;;1.60;90.90;;;;;;5048564;28;20695;-85
2021/04/14 02:06:15;;;;;;;3.63;3.43;;;1.60;91.30;;;;;;5048330;28;20180;-85
2021/04/14 02:08:41;;;;;;;2.80;2.27;;;1.60;91.40;;;;;;5032810;28;20408;-85
2021/04/14 02:11:13;;;;;;;1.87;1.77;;;1.60;90.60;;;;;;5047919;28;20482;-85
2021/04/14 02:13:41;;;;;;;2.37;2.17;;;1.50;91.80;;;;;;5048750;28;20518;-85
2021/04/14 02:16:10;;;;;;;2.87;2.20;;;1.50;86.40;;;;;;5048453;28;20427;-85
2021/04/14 02:18:36;;;;;;;5.60;3.00;;;1.70;83.50;;;;;;5048144;28;20411;-85
2021/04/14 02:21:03;;;;;;;2.37;1.93;;;1.90;73.80;;;;;;5048355;28;20578;-85
2021/04/14 02:23:34;;;;;;;7.77;2.87;;;1.80;71.60;;;;;;5031332;28;20666;-85
2021/04/14 02:26:03;;;;;;;3.47;2.90;;;1.90;71.30;;;;;;5047996;28;20442;-85
2021/04/14 02:28:29;;;;;;;5.07;2.73;;;2.20;62.70;;;;;;5047990;28;20419;-85
2021/04/14 02:30:55;;;;;;;6.20;2.60;;;2.00;56.80;;;;;;5031492;28;20419;-85
2021/04/14 02:33:21;;;;;;;5.97;2.90;;;2.20;55.70;;;;;;5033120;28;20423;-86
2021/04/14 02:35:49;;;;;;;3.27;2.93;;;2.20;52.90;;;;;;5047806;28;20517;-85
2021/04/14 02:38:15;;;;;;;2.40;2.20;;;1.60;49.30;;;;;;5031257;28;20506;-85
2021/04/14 02:40:40;;;;;;;3.70;2.93;;;1.70;48.00;;;;;;5048063;28;20483;-85
2021/04/14 02:43:06;;;;;;;5.47;3.10;;;1.60;50.20;;;;;;5048030;28;20485;-85
2021/04/14 02:45:34;;;;;;;3.27;2.97;;;2.10;51.40;;;;;;5033042;28;20169;-86
2021/04/14 02:48:00;;;;;;;4.40;3.30;;;1.70;55.20;;;;;;5048132;28;20422;-85
2021/04/14 02:50:26;;;;;;;2.70;2.50;;;1.80;55.40;;;;;;5047896;28;20423;-85
2021/04/14 02:52:55;;;;;;;2.87;2.43;;;1.90;57.80;;;;;;5047915;28;20445;-85
2021/04/14 02:55:24;;;;;;;2.70;2.50;;;1.70;60.80;;;;;;5047360;28;20207;-85
2021/04/14 02:57:49;;;;;;;2.67;2.47;;;1.50;65.20;;;;;;5047400;28;20530;-83
2021/04/14 03:00:17;;;;;;;3.33;3.03;;;1.80;75.60;;;;;;5047236;28;20558;-85
2021/04/14 03:02:42;;;;;;;3.40;3.10;;;1.50;78.60;;;;;;5047363;28;20267;-85
2021/04/14 03:05:10;;;;;;;4.60;2.30;;;1.70;77.60;;;;;;5047331;28;20526;-86
2021/04/14 03:07:36;;;;;;;3.20;2.90;;;1.60;79.20;;;;;;5047931;28;20203;-85
2021/04/14 03:10:03;;;;;;;3.23;2.67;;;1.60;83.30;;;;;;5047158;28;20458;-85
2021/04/14 03:12:29;;;;;;;3.10;2.80;;;1.60;86.40;;;;;;5047587;28;20506;-86
2021/04/14 03:14:55;;;;;;;5.40;3.97;;;1.30;84.30;;;;;;5047987;28;20566;-85
2021/04/14 03:17:21;;;;;;;6.27;3.00;;;1.50;83.00;;;;;;5047600;28;20517;-84
2021/04/14 03:19:47;;;;;;;3.50;2.60;;;1.30;83.20;;;;;;5046927;28;21053;-84
2021/04/14 03:22:12;;;;;;;2.67;2.47;;;1.10;84.30;;;;;;5048034;28;20542;-85
2021/04/14 03:24:38;;;;;;;2.90;2.10;;;1.20;87.10;;;;;;5047601;28;20231;-85
2021/04/14 03:27:04;;;;;;;3.40;2.77;;;1.50;85.60;;;;;;5047826;28;20192;-85
2021/04/14 03:29:29;;;;;;;3.30;2.90;;;1.70;89.00;;;;;;5047838;28;20176;-85
2021/04/14 03:31:55;;;;;;;12.07;4.70;;;1.60;90.50;;;;;;5030974;28;20208;-85
2021/04/14 03:34:21;;;;;;;12.10;3.90;;;1.70;90.50;;;;;;5047348;28;20184;-83
2021/04/14 03:36:46;;;;;;;7.50;3.70;;;1.70;86.50;;;;;;5047293;28;20663;-85
2021/04/14 03:39:12;;;;;;;10.67;4.73;;;1.70;90.00;;;;;;5047706;28;20306;-85
2021/04/14 03:41:37;;;;;;;7.37;4.30;;;1.70;90.40;;;;;;5031745;28;20179;-84
2021/04/14 03:44:03;;;;;;;5.10;4.60;;;1.70;90.00;;;;;;5047071;28;20629;-84
2021/04/14 03:46:29;;;;;;;5.40;4.17;;;1.60;90.90;;;;;;5047127;28;20180;-83
2021/04/14 03:48:54;;;;;;;5.33;4.23;;;1.60;91.80;;;;;;5031673;28;20203;-85
2021/04/14 03:51:22;;;;;;;8.17;4.80;;;1.50;91.80;;;;;;5047868;28;20178;-85
2021/04/14 03:53:48;;;;;;;4.23;3.40;;;1.40;91.50;;;;;;5047383;28;20173;-85
2021/04/14 03:56:18;;;;;;;3.80;3.40;;;1.40;92.90;;;;;;5046832;28;20469;-85
2021/04/14 03:58:47;;;;;;;9.20;3.90;;;1.50;92.70;;;;;;5047269;28;20455;-85
2021/04/14 04:01:16;;;;;;;4.03;3.63;;;1.50;94.50;;;;;;5030588;28;20467;-85
2021/04/14 04:03:42;;;;;;;3.57;3.27;;;1.30;94.70;;;;;;5032140;28;20415;-86
2021/04/14 04:06:07;;;;;;;2.83;2.53;;;1.40;95.70;;;;;;5046990;28;20419;-86
2021/04/14 04:08:33;;;;;;;3.47;3.17;;;1.00;94.90;;;;;;5047050;28;20210;-85
2021/04/14 04:10:59;;;;;;;3.77;2.20;;;1.50;98.50;;;;;;5047220;28;20251;-85
2021/04/14 04:13:26;;;;;;;1.97;1.87;;;1.40;99.90;;;;;;5050283;28;20188;-84
2021/04/14 04:15:52;;;;;;;4.03;2.20;;;1.50;99.90;;;;;;5037052;28;20185;-85
2021/04/14 04:18:17;;;;;;;3.80;2.17;;;1.50;99.90;;;;;;5034387;28;20768;-82
2021/04/14 04:20:43;;;;;;;8.27;3.53;;;1.10;99.90;;;;;;5034126;28;20232;-86
2021/04/14 04:23:10;;;;;;;2.50;2.30;;;0.90;99.90;;;;;;5050505;28;20195;-85
2021/04/14 04:25:36;;;;;;;6.63;2.27;;;0.80;99.90;;;;;;5035150;28;20177;-85
2021/04/14 04:28:02;;;;;;;2.43;2.20;;;1.10;99.90;;;;;;5035169;28;20407;-85
2021/04/14 04:30:28;;;;;;;13.00;4.87;;;1.00;99.90;;;;;;5033277;28;20428;-85
2021/04/14 04:32:54;;;;;;;3.73;3.03;;;1.10;99.90;;;;;;5051418;28;20466;-85
2021/04/14 04:35:21;;;;;;;3.30;3.00;;;1.20;99.90;;;;;;5036778;28;20441;-86
2021/04/14 04:37:47;;;;;;;8.33;5.10;;;1.40;99.90;;;;;;5034663;28;20417;-85
2021/04/14 04:40:14;;;;;;;4.30;3.50;;;1.00;99.90;;;;;;5051283;28;20478;-84
2021/04/14 04:42:39;;;;;;;4.20;3.70;;;1.40;99.90;;;;;;5050106;28;20177;-83
2021/04/14 04:45:07;;;;;;;9.50;3.90;;;1.10;99.90;;;;;;5033636;28;20423;-85
2021/04/14 04:47:33;;;;;;;5.13;4.07;;;1.40;99.90;;;;;;5049896;28;20173;-83
2021/04/14 04:49:59;;;;;;;15.00;7.20;;;1.60;99.90;;;;;;5035006;28;20569;-83
2021/04/14 04:52:24;;;;;;;14.33;6.90;;;1.50;99.90;;;;;;5034970;28;20200;-84
2021/04/14 04:54:50;;;;;;;7.13;4.47;;;1.70;99.90;;;;;;5034405;28;20169;-83
2021/04/14 04:57:16;;;;;;;6.60;4.57;;;1.70;99.90;;;;;;5034684;28;20172;-82
2021/04/14 04:59:41;;;;;;;9.00;4.00;;;1.40;99.90;;;;;;5050858;28;20270;-82
2021/04/14 05:02:07;;;;;;;6.90;3.60;;;2.00;99.90;;;;;;5034407;28;20426;-83
2021/04/14 05:04:33;;;;;;;4.20;3.50;;;2.10;99.90;;;;;;5049934;28;20172;-85
2021/04/14 05:06:58;;;;;;;3.40;2.70;;;2.00;99.90;;;;;;5050679;28;20181;-84
2021/04/14 05:09:24;;;;;;;5.40;2.93;;;1.90;99.90;;;;;;5038603;28;20207;-84
2021/04/14 05:11:50;;;;;;;3.77;3.40;;;2.00;99.90;;;;;;5049382;28;20188;-84
2021/04/14 05:14:16;;;;;;;11.40;3.93;;;1.70;99.90;;;;;;5049402;28;20820;-84
2021/04/14 05:16:42;;;;;;;3.60;3.30;;;1.80;99.30;;;;;;5049720;28;20422;-81
2021/04/14 05:19:08;;;;;;;4.10;3.70;;;2.00;98.90;;;;;;5034141;28;20471;-83
2021/04/14 05:21:37;;;;;;;13.13;7.93;;;2.30;97.50;;;;;;5049309;28;20176;-80
2021/04/14 05:24:03;;;;;;;5.33;4.93;;;2.00;96.50;;;;;;5052704;28;20185;-84
2021/04/14 05:26:29;;;;;;;7.40;5.17;;;2.50;96.00;;;;;;5049637;28;21000;-84
2021/04/14 05:28:54;;;;;;;5.67;5.13;;;2.50;92.30;;;;;;5048917;28;20419;-84
2021/04/14 05:31:21;;;;;;;8.60;5.20;;;2.10;90.90;;;;;;5032917;28;20184;-84
2021/04/14 05:33:47;;;;;;;4.33;3.90;;;2.70;91.60;;;;;;5049240;28;20589;-82
2021/04/14 05:36:13;;;;;;;4.97;4.47;;;2.80;87.80;;;;;;5048409;28;20435;-83
2021/04/14 05:38:39;;;;;;;5.03;4.60;;;2.50;77.10;;;;;;5032423;28;20442;-84
2021/04/14 05:41:05;;;;;;;4.40;3.60;;;2.90;76.10;;;;;;5034074;28;20211;-84
2021/04/14 05:43:38;;;;;;;15.60;5.80;;;3.30;68.40;;;;;;5034242;28;20168;-83
2021/04/14 05:46:07;;;;;;;5.90;3.63;;;3.00;58.60;;;;;;5049901;28;20418;-83
2021/04/14 05:48:34;;;;;;;10.80;4.60;;;3.70;49.50;;;;;;5035280;28;20419;-84
2021/04/14 05:51:04;;;;;;;8.00;4.77;;;3.80;30.60;;;;;;5035973;28;20472;-83
2021/04/14 05:53:31;;;;;;;5.73;3.87;;;4.00;15.10;;;;;;5032806;28;20867;-77
2021/04/14 05:55:56;;;;;;;11.20;4.83;;;4.20;3.40;;;;;;5033017;28;20732;-83
2021/04/14 05:58:22;;;;;;;11.53;4.50;;;4.40;1.00;;;;;;5051883;28;20427;-84
2021/04/14 06:00:48;;;;;;;4.87;4.17;;;4.80;1.00;;;;;;5048302;28;20222;-83
2021/04/14 06:03:13;;;;;;;7.07;3.17;;;5.40;1.00;;;;;;5032673;28;20632;-84
2021/04/14 06:05:39;;;;;;;3.53;3.00;;;5.70;1.00;;;;;;5033567;28;20164;-83
2021/04/14 06:08:05;;;;;;;5.87;3.50;;;6.10;1.00;;;;;;5050194;28;20601;-84
2021/04/14 06:10:31;;;;;;;4.50;2.10;;;6.50;99.90;;;;;;5033417;28;20235;-85
2021/04/14 06:12:56;;;;;;;3.60;3.00;;;6.90;1.00;;;;;;5033216;28;20420;-84
2021/04/14 06:15:26;;;;;;;5.40;4.90;;;7.40;99.90;;;;;;5047569;28;20955;-82
2021/04/14 06:17:51;;;;;;;3.83;2.93;;;7.20;1.00;;;;;;5048342;28;20181;-85
2021/04/14 06:20:20;;;;;;;7.17;4.63;;;7.50;1.00;;;;;;5031103;28;20508;-84
2021/04/14 06:22:46;;;;;;;3.03;2.17;;;7.60;99.90;;;;;;5032529;28;20196;-82
2021/04/14 06:25:15;;;;;;;2.90;2.70;;;7.80;83.00;;;;;;5047941;28;20420;-84
2021/04/14 06:28:02;;;;;;;2.70;2.50;;;7.70;1.00;;;;;;5048341;28;20188;-84
2021/04/14 06:30:28;;;;;;;5.20;2.77;;;7.60;1.00;;;;;;5032946;28;20419;-84
2021/04/14 06:32:53;;;;;;;4.27;2.73;;;7.40;37.80;;;;;;5032373;28;20428;-85
2021/04/14 06:35:22;;;;;;;4.93;2.63;;;7.90;1.00;;;;;;5047580;28;20778;-79
2021/04/14 06:37:48;;;;;;;2.77;2.50;;;7.50;1.00;;;;;;5032726;28;20180;-84
2021/04/14 06:43:14;;;;;;;2.97;2.67;;;8.50;1.00;;;;;;5032427;28;20521;-84
2021/04/14 06:45:44;;;;;;;3.47;2.70;;;8.40;99.90;;;;;;5029758;28;20435;-84
2021/04/14 06:48:37;;;;;;;4.40;2.87;;;8.70;99.90;;;;;;5048123;28;20418;-85
2021/04/14 06:51:08;;;;;;;5.33;3.20;;;8.60;99.90;;;;;;5032974;28;20434;-84
2021/04/14 06:53:38;;;;;;;2.63;2.30;;;7.90;99.90;;;;;;5047779;28;20795;-84
2021/04/14 06:56:24;;;;;;;2.70;2.50;;;8.60;99.90;;;;;;5032612;28;20419;-84
2021/04/14 06:59:00;;;;;;;3.20;2.90;;;8.90;99.90;;;;;;5031576;28;20415;-81
2021/04/14 07:01:38;;;;;;;3.00;2.80;;;8.60;99.90;;;;;;5034187;28;20486;-84
2021/04/14 07:04:11;;;;;;;6.00;2.80;;;9.30;99.90;;;;;;5048465;28;20915;-85
2021/04/14 07:06:40;;;;;;;3.37;3.07;;;9.00;99.90;;;;;;5048070;28;20443;-84
2021/04/14 07:09:22;;;;;;;3.10;2.67;;;8.70;99.90;;;;;;5047890;28;20811;-84
2021/04/14 07:11:47;;;;;;;4.83;3.43;;;8.80;99.90;;;;;;5032205;28;20431;-84
2021/04/14 07:14:16;;;;;;;2.90;2.70;;;9.10;99.90;;;;;;5031749;28;20901;-83
2021/04/14 07:16:49;;;;;;;3.83;3.00;;;9.10;99.90;;;;;;5031182;28;20238;-84
2021/04/14 07:19:32;;;;;;;6.27;5.87;;;8.90;99.90;;;;;;5047398;28;20477;-85
2021/04/14 07:22:31;;;;;;;4.20;2.77;;;9.20;99.90;;;;;;5031651;28;20423;-84
2021/04/14 07:25:03;;;;;;;4.73;3.40;;;9.40;99.90;;;;;;5030753;28;20459;-84
2021/04/14 07:27:59;;;;;;;3.97;3.30;;;10.00;99.90;;;;;;5032400;28;20486;-84
2021/04/14 07:30:35;;;;;;;4.60;3.10;;;10.60;1.00;;;;;;5032276;28;20496;-84
2021/04/14 07:33:17;;;;;;;3.60;3.07;;;10.90;1.00;;;;;;5047909;28;20410;-84
2021/04/14 07:35:57;;;;;;;6.63;3.67;;;10.70;1.00;;;;;;5032274;28;20467;-85
2021/04/14 07:38:33;;;;;;;3.40;3.10;;;11.20;1.00;;;;;;5031373;28;20415;-84
2021/04/14 07:41:07;;;;;;;3.60;2.90;;;10.90;1.00;;;;;;5041138;28;21059;-83
2021/04/14 07:44:03;;;;;;;3.57;3.23;;;10.90;1.00;;;;;;5046811;28;20423;-84
2021/04/14 07:46:29;;;;;;;3.57;3.10;;;11.10;1.00;;;;;;5047967;28;20427;-85
2021/04/14 07:48:58;;;;;;;5.57;2.97;;;12.20;1.00;;;;;;5035636;28;20411;-84
2021/04/14 07:51:24;;;;;;;4.00;2.33;;;11.60;1.00;;;;;;5050648;28;20427;-84
2021/04/14 07:53:56;;;;;;;2.83;2.10;;;11.20;1.00;;;;;;5036388;28;20490;-85
2021/04/14 07:56:23;;;;;;;3.80;3.10;;;11.00;1.00;;;;;;5034599;28;20418;-85
2021/04/14 07:58:53;;;;;;;4.83;2.63;;;11.10;1.00;;;;;;5051353;28;20939;-85
2021/04/14 08:01:22;;;;;;;2.67;2.23;;;11.30;1.00;;;;;;5050554;28;20457;-85
2021/04/14 08:03:49;;;;;;;2.77;2.13;;;11.60;1.00;;;;;;5050389;28;20423;-85
2021/04/14 08:06:23;;;;;;;7.13;4.70;;;12.50;1.00;;;;;;5051155;28;20419;-85
2021/04/14 08:08:50;;;;;;;2.93;2.73;;;11.80;1.00;;;;;;5035656;28;20469;-84
2021/04/14 08:11:26;;;;;;;4.20;2.93;;;11.80;1.00;;;;;;5034940;28;20463;-85
2021/04/14 08:13:53;;;;;;;3.50;3.10;;;12.00;1.00;;;;;;5034169;28;20431;-84
2021/04/14 08:16:34;;;;;;;3.63;3.33;;;12.30;1.00;;;;;;5050728;28;20431;-86
2021/04/14 08:19:10;;;;;;;6.80;4.93;;;11.90;1.00;;;;;;5050407;28;20506;-85
2021/04/14 08:21:40;;;;;;;4.00;3.20;;;12.40;1.00;;;;;;5033792;28;20514;-84
2021/04/14 08:24:13;;;;;;;5.03;3.80;;;11.60;1.00;;;;;;5036836;28;20395;-85
2021/04/14 08:26:53;;;;;;;4.93;4.53;;;11.90;1.00;;;;;;5050472;28;20511;-85
2021/04/14 08:29:19;;;;;;;2.83;2.63;;;11.70;1.00;;;;;;5034662;28;20419;-85
2021/04/14 08:31:46;;;;;;;3.90;2.83;;;11.90;99.90;;;;;;5033365;28;20423;-86
2021/04/14 08:34:24;;;;;;;3.10;2.80;;;12.20;99.90;;;;;;5050777;28;20177;-84
2021/04/14 08:37:07;;;;;;;3.20;2.90;;;13.00;99.90;;;;;;5034500;28;20423;-84
2021/04/14 08:39:47;;;;;;;3.00;2.70;;;13.00;99.90;;;;;;5035015;28;20454;-85
2021/04/14 08:42:22;;;;;;;6.97;2.97;;;13.30;99.90;;;;;;5050382;28;20423;-85
2021/04/14 08:45:09;;;;;;;3.50;3.27;;;13.50;99.90;;;;;;5033051;28;20926;-85
2021/04/14 08:47:37;;;;;;;5.13;3.13;;;13.00;99.90;;;;;;5051571;28;20505;-84
2021/04/14 08:50:13;;;;;;;5.80;3.13;;;13.00;99.90;;;;;;5050669;28;20411;-86
2021/04/14 08:52:42;;;;;;;3.60;3.00;;;13.30;99.90;;;;;;5050235;28;20427;-86
2021/04/14 08:55:10;;;;;;;4.27;3.37;;;13.30;99.90;;;;;;5050083;28;20415;-84
2021/04/14 08:57:36;;;;;;;5.13;3.50;;;12.70;99.90;;;;;;5032644;28;20993;-84
2021/04/14 09:00:04;;;;;;;10.73;4.60;;;12.60;99.90;;;;;;5034010;28;20467;-84
2021/04/14 09:02:29;;;;;;;4.23;3.20;;;12.30;99.90;;;;;;5049327;28;20173;-83
2021/04/14 09:04:55;;;;;;;3.37;3.07;;;12.10;99.90;;;;;;5033149;28;20787;-86
2021/04/14 09:07:33;;;;;;;5.13;3.10;;;12.40;99.90;;;;;;5050415;28;20177;-86
2021/04/14 09:10:03;;;;;;;3.67;3.37;;;13.50;99.90;;;;;;5050006;28;20238;-85
2021/04/14 09:12:42;;;;;;;3.70;3.40;;;14.20;99.90;;;;;;5049198;28;20926;-85
2021/04/14 09:15:11;;;;;;;4.10;3.70;;;14.30;99.90;;;;;;5032797;28;20416;-85
2021/04/14 09:17:37;;;;;;;4.73;3.63;;;13.80;99.90;;;;;;5033567;28;20449;-86
2021/04/14 09:20:24;;;;;;;4.90;4.47;;;14.50;99.90;;;;;;5033917;28;20470;-80
2021/04/14 09:23:00;;;;;;;4.30;4.00;;;15.00;99.90;;;;;;5049268;28;20233;-85
2021/04/14 09:25:42;;;;;;;4.10;3.70;;;14.60;99.90;;;;;;5034255;28;20423;-85
2021/04/14 09:28:14;;;;;;;5.17;4.53;;;13.20;99.90;;;;;;5034095;28;20476;-86
2021/04/14 09:30:54;;;;;;;4.07;3.77;;;13.00;99.90;;;;;;5034833;28;20494;-86
2021/04/14 09:33:41;;;;;;;6.50;4.57;;;13.50;99.90;;;;;;5034550;28;20415;-85
2021/04/14 09:36:11;;;;;;;5.40;4.17;;;13.10;99.90;;;;;;5014021;28;20765;-86
2021/04/14 09:38:50;;;;;;;7.33;4.50;;;12.70;99.90;;;;;;5013730;28;20436;-85
2021/04/14 09:41:37;;;;;;;4.30;3.97;;;13.60;99.90;;;;;;5013003;28;20458;-86
2021/04/14 09:44:33;;;;;;;6.00;4.67;;;13.80;99.90;;;;;;5013962;28;20412;-85
2021/04/14 09:47:32;;;;;;;4.73;4.33;;;13.70;99.90;;;;;;5012509;28;21002;-85
2021/04/14 09:50:12;;;;;;;4.23;3.70;;;14.40;99.90;;;;;;5007429;28;20576;-86
2021/04/14 09:52:44;;;;;;;4.27;3.87;;;15.10;99.90;;;;;;5013661;28;20448;-86
2021/04/14 09:55:15;;;;;;;4.80;3.13;;;14.70;99.90;;;;;;5012691;28;20424;-84
2021/04/14 09:57:44;;;;;;;3.73;3.43;;;14.50;99.90;;;;;;5012689;28;20512;-85
2021/04/14 10:00:30;;;;;;;4.20;3.90;;;15.30;99.90;;;;;;5013721;28;20482;-85
2021/04/14 10:02:59;;;;;;;5.53;3.67;;;14.10;99.90;;;;;;5012373;28;20416;-83
2021/04/14 10:05:30;;;;;;;4.10;3.80;;;14.40;99.90;;;;;;5013696;28;20780;-84
2021/04/14 10:08:00;;;;;;;4.33;3.83;;;14.50;99.90;;;;;;5012559;28;20436;-86
2021/04/14 10:10:27;;;;;;;4.13;3.77;;;13.70;99.90;;;;;;5024487;28;20512;-84
2021/04/14 10:12:53;;;;;;;6.10;4.23;;;13.80;99.90;;;;;;5032010;28;20416;-84
2021/04/14 10:15:30;;;;;;;4.87;4.47;;;12.20;99.90;;;;;;5032031;28;20413;-85
2021/04/14 10:18:04;;;;;;;5.23;4.73;;;11.60;99.90;;;;;;5032800;28;20918;-85
2021/04/14 10:20:39;;;;;;;4.40;4.07;;;11.60;99.90;;;;;;5033427;28;20467;-85
2021/04/14 10:23:11;;;;;;;4.40;4.00;;;10.80;99.90;;;;;;5032838;28;20414;-85
2021/04/14 10:25:40;;;;;;;5.10;3.73;;;10.70;1.00;;;;;;5033391;28;20435;-86
2021/04/14 10:28:14;;;;;;;5.13;4.73;;;10.50;1.00;;;;;;5033082;28;20498;-85
2021/04/14 10:30:44;;;;;;;3.13;2.93;;;10.30;1.00;;;;;;5032721;28;20418;-85
2021/04/14 10:33:17;;;;;;;4.40;4.00;;;9.90;1.00;;;;;;5048296;28;20415;-85
2021/04/14 10:35:44;;;;;;;3.87;3.40;;;10.70;1.00;;;;;;5032666;28;20415;-85
2021/04/14 10:38:10;;;;;;;6.37;4.73;;;11.90;99.90;;;;;;5049434;28;20434;-84
2021/04/14 10:40:44;;;;;;;4.10;3.80;;;12.60;99.90;;;;;;5032427;28;20986;-84
2021/04/14 10:43:21;;;;;;;3.87;3.57;;;12.10;99.90;;;;;;5045973;28;20537;-84
2021/04/14 10:46:19;;;;;;;4.80;3.73;;;11.80;99.90;;;;;;5032072;28;20434;-85
2021/04/14 10:48:48;;;;;;;3.93;3.10;;;13.10;99.90;;;;;;5042215;28;20424;-85
2021/04/14 10:51:22;;;;;;;3.50;3.30;;;14.80;99.90;;;;;;5054060;28;20494;-84
2021/04/14 10:53:50;;;;;;;4.03;3.73;;;15.40;99.90;;;;;;5046875;28;20461;-84
2021/04/14 10:56:31;;;;;;;3.47;3.27;;;14.90;99.90;;;;;;5037808;28;20486;-85
2021/04/14 10:59:04;;;;;;;3.23;3.10;;;13.10;99.90;;;;;;5039268;28;20420;-84
2021/04/14 11:01:47;;;;;;;3.53;3.33;;;12.50;99.90;;;;;;5039006;28;20504;-83
2021/04/14 11:04:15;;;;;;;3.40;3.13;;;12.10;99.90;;;;;;5035840;28;20992;-84
2021/04/14 11:06:42;;;;;;;3.40;3.10;;;11.70;99.90;;;;;;5042138;28;20411;-84
2021/04/14 11:09:10;;;;;;;3.17;2.90;;;11.00;99.90;;;;;;5058011;28;20434;-83
2021/04/14 11:11:38;;;;;;;3.60;3.30;;;11.30;99.90;;;;;;5034968;28;20419;-84
2021/04/14 11:14:18;;;;;;;3.67;3.40;;;12.80;99.90;;;;;;5045540;28;20482;-85
2021/04/14 11:16:46;;;;;;;4.40;3.27;;;13.00;99.90;;;;;;5027607;28;20439;-85
2021/04/14 11:19:17;;;;;;;2.80;2.60;;;12.80;99.90;;;;;;5041692;28;20414;-86
2021/04/14 11:21:44;;;;;;;4.27;3.33;;;13.50;99.90;;;;;;5048839;28;20469;-85
2021/04/14 11:24:11;;;;;;;3.27;3.00;;;13.50;99.90;;;;;;5052805;28;20815;-85
2021/04/14 11:26:46;;;;;;;3.77;3.40;;;12.90;99.90;;;;;;5044982;28;20517;-85
2021/04/14 11:29:23;;;;;;;4.43;4.13;;;12.70;99.90;;;;;;5028527;28;20430;-85
2021/04/14 11:31:51;;;;;;;3.47;3.27;;;12.40;99.90;;;;;;5031633;28;20426;-84
2021/04/14 11:34:19;;;;;;;3.67;3.40;;;11.30;99.90;;;;;;5048279;28;20477;-86
2021/04/14 11:37:03;;;;;;;4.17;3.87;;;10.60;99.90;;;;;;5042131;28;20433;-84
2021/04/14 11:39:35;;;;;;;4.17;3.90;;;10.80;99.90;;;;;;5054285;28;20477;-84
2021/04/14 11:42:13;;;;;;;2.97;2.73;;;11.10;99.90;;;;;;5051542;28;20470;-84
2021/04/14 11:44:49;;;;;;;3.83;3.53;;;11.30;99.90;;;;;;5058167;28;20432;-83
2021/04/14 11:47:31;;;;;;;3.43;3.10;;;11.00;1.00;;;;;;5039693;28;20517;-84
2021/04/14 11:50:16;;;;;;;3.03;2.73;;;10.90;1.00;;;;;;5057693;28;20477;-84
2021/04/14 11:52:54;;;;;;;3.23;2.83;;;9.70;1.00;;;;;;5046137;28;20899;-85
2021/04/14 11:55:20;;;;;;;3.23;2.77;;;9.30;85.90;;;;;;5047613;28;20505;-85
2021/04/14 11:57:51;;;;;;;4.00;3.20;;;8.60;1.00;;;;;;5036243;28;20506;-83
2021/04/14 12:00:18;;;;;;;4.27;3.87;;;8.50;99.90;;;;;;5059879;28;20209;-85
2021/04/14 12:02:46;;;;;;;3.20;2.90;;;8.60;99.90;;;;;;5032269;28;20433;-84
2021/04/14 12:05:12;;;;;;;2.97;2.77;;;8.20;1.00;;;;;;5063361;28;20433;-85
2021/04/14 12:07:38;;;;;;;3.43;3.10;;;8.10;1.00;;;;;;5055472;28;21072;-84
2021/04/14 12:10:05;;;;;;;2.60;2.40;;;7.50;1.00;;;;;;5054919;28;20491;-84
2021/04/14 12:12:31;;;;;;;4.83;4.00;;;7.30;1.00;;;;;;5040056;28;20180;-86
2021/04/14 12:14:57;;;;;;;5.20;4.70;;;7.50;1.00;;;;;;5055899;28;20427;-84
2021/04/14 12:17:23;;;;;;;4.50;4.20;;;7.50;1.00;;;;;;5063303;28;20628;-85
2021/04/14 12:19:49;;;;;;;4.93;4.10;;;7.60;1.00;;;;;;5029629;28;20459;-84
2021/04/14 12:22:16;;;;;;;7.53;4.07;;;7.40;1.00;;;;;;5041284;28;20474;-84
2021/04/14 12:24:43;;;;;;;4.50;4.10;;;7.60;1.00;;;;;;5051958;28;20494;-83
2021/04/14 12:27:09;;;;;;;3.83;3.40;;;7.20;1.00;;;;;;5065831;28;20430;-84
2021/04/14 12:29:35;;;;;;;5.53;3.37;;;7.20;1.00;;;;;;5037683;28;20459;-84
2021/04/14 12:32:00;;;;;;;4.00;3.70;;;7.50;1.00;;;;;;5052977;28;20473;-85
2021/04/14 12:34:26;;;;;;;4.90;4.50;;;7.50;1.00;;;;;;5031422;28;20207;-85
2021/04/14 12:36:51;;;;;;;6.07;3.70;;;7.60;1.00;;;;;;5032121;28;20191;-84
2021/04/14 12:39:17;;;;;;;8.43;4.20;;;7.70;1.00;;;;;;5033084;28;20169;-84
2021/04/14 12:41:43;;;;;;;7.20;5.30;;;7.80;1.00;;;;;;5032197;28;20184;-85
2021/04/14 12:44:09;;;;;;;6.37;5.87;;;8.00;1.00;;;;;;5031920;28;20246;-84
2021/04/14 12:46:41;;;;;;;6.23;4.30;;;8.10;1.00;;;;;;5048534;28;20180;-85
2021/04/14 12:49:12;;;;;;;7.07;4.40;;;7.80;99.90;;;;;;5031555;28;20561;-84
2021/04/14 12:51:41;;;;;;;5.00;3.67;;;7.90;99.90;;;;;;5032837;28;20423;-85
2021/04/14 12:54:14;;;;;;;4.03;3.73;;;7.90;99.90;;;;;;5028748;28;20438;-86
2021/04/14 12:56:49;;;;;;;5.10;3.93;;;8.10;99.90;;;;;;5048179;28;20494;-85
2021/04/14 12:59:20;;;;;;;3.47;3.17;;;8.30;99.90;;;;;;5026576;28;20952;-84
2021/04/14 13:01:49;;;;;;;5.10;3.97;;;8.10;99.90;;;;;;5058689;28;20439;-84
2021/04/14 13:04:24;;;;;;;4.63;3.73;;;8.00;97.90;;;;;;5037147;28;20410;-84
2021/04/14 13:06:55;;;;;;;3.50;3.27;;;8.10;14.10;;;;;;5037409;28;20498;-79
2021/04/14 13:09:23;;;;;;;2.97;2.77;;;8.40;1.00;;;;;;5036866;28;20454;-84
2021/04/14 13:11:56;;;;;;;7.47;3.53;;;8.60;99.90;;;;;;5060636;28;20494;-84
2021/04/14 13:14:22;;;;;;;3.20;3.00;;;8.20;99.90;;;;;;5037933;28;20837;-85